Kitty — ZCXB — position and weather

sailwx.info

Track history (hours):
 
Tides and Currents Weather Stations Pressure Air Temp Water Temp Dewpoint Dewpoint Depression Visibility Wind Speed Wind Dir Waves Ship Positions

Kitty

Last reported at 2015-Aug-03 12:31 UTC. Time now 2015-Aug-03 13:09 UTC.
Position N 39°32' E 002°35'.

Length 38 m; draft 2.7 m.

Type: Pleasure craft. MMSI: 319423000.

Date/timePositionNaut miles runAvg speedWind from/ knotsBaromVisibWave heightAir tempDewpointWater temp
2015-Aug-03 12:31N 39°32' E 002°35'0 0.0
2015-Aug-03 11:31N 39°32' E 002°35'0 0.0
2015-Aug-03 10:31N 39°32' E 002°35'0 0.0
2015-Aug-03 09:31N 39°32' E 002°35'0 0.0
2015-Aug-03 08:31N 39°32' E 002°35'0 0.0
2015-Aug-03 07:31N 39°32' E 002°35'0 0.0
2015-Aug-03 06:31N 39°32' E 002°35'0 0.0
2015-Aug-03 05:31N 39°32' E 002°35'0 0.0
2015-Aug-03 04:31N 39°32' E 002°35'0 0.0
2015-Aug-03 03:25N 39°32' E 002°35'0 0.0
2015-Aug-03 02:31N 39°32' E 002°35'0 0.0
2015-Aug-03 01:31N 39°32' E 002°35'0 0.0
2015-Aug-03 00:28N 39°32' E 002°35'0 0.0
2015-Aug-02 23:31N 39°32' E 002°35'0 0.0
2015-Aug-02 22:31N 39°32' E 002°35'0 0.0
2015-Aug-02 21:31N 39°32' E 002°35'0 0.0
2015-Aug-02 20:28N 39°32' E 002°35'0 0.0
2015-Aug-02 19:31N 39°32' E 002°35'0 0.0
2015-Aug-02 18:31N 39°32' E 002°35'0 0.0
2015-Aug-02 17:31N 39°32' E 002°35'0 0.0
2015-Aug-02 16:31N 39°32' E 002°35'0 0.0
2015-Aug-02 15:31N 39°32' E 002°35'0 0.0
2015-Aug-02 14:31N 39°32' E 002°35'0 0.0
2015-Aug-02 13:31N 39°32' E 002°35'0 0.2
2015-Aug-02 12:34N 39°32' E 002°35'3 3.1
2015-Aug-02 11:32N 39°34' E 002°38'0 0.0
2015-Aug-02 10:32N 39°34' E 002°38'0 0.0
2015-Aug-02 09:32N 39°34' E 002°38'0 0.0
2015-Aug-02 08:32N 39°34' E 002°38'0 0.0
2015-Aug-02 07:32N 39°34' E 002°38'0 0.0
2015-Aug-02 06:32N 39°34' E 002°38'0 0.0
2015-Aug-02 05:32N 39°34' E 002°38'0 0.0
2015-Aug-02 04:32N 39°34' E 002°38'0 0.0
2015-Aug-02 03:32N 39°34' E 002°38'0 0.0
2015-Aug-02 02:32N 39°34' E 002°38'0 0.0
2015-Aug-02 01:32N 39°34' E 002°38'0 0.0
2015-Aug-02 00:32N 39°34' E 002°38'0 0.0
2015-Aug-01 23:32N 39°34' E 002°38'0 0.0
2015-Aug-01 22:32N 39°34' E 002°38'0 0.0
2015-Aug-01 21:11N 39°34' E 002°38'0 0.0
2015-Aug-01 20:32N 39°34' E 002°38'0 0.0
2015-Aug-01 19:32N 39°34' E 002°38'0 0.0
2015-Aug-01 18:32N 39°34' E 002°38'0 0.0
2015-Aug-01 17:32N 39°34' E 002°38'0 0.0
2015-Aug-01 16:32N 39°34' E 002°38'0 0.0
2015-Aug-01 15:32N 39°34' E 002°38'0 0.0
2015-Aug-01 14:32N 39°34' E 002°38'0 0.0
2015-Aug-01 13:32N 39°34' E 002°38'0 0.0
2015-Aug-01 12:32N 39°34' E 002°38'0 0.0
2015-Aug-01 11:32N 39°34' E 002°38'0 0.0
2015-Aug-01 10:32N 39°34' E 002°38'0 0.0
2015-Aug-01 09:33N 39°34' E 002°38'4 3.7
2015-Aug-01 08:33N 39°31' E 002°40'10 9.9
2015-Aug-01 07:33N 39°22' E 002°46'10 9.9
2015-Aug-01 06:33N 39°20' E 002°58'1 0.5
2015-Aug-01 05:31N 39°20' E 002°59'0 0.0
2015-Aug-01 04:28N 39°20' E 002°59'0 0.0
2015-Aug-01 03:28N 39°20' E 002°59'0 0.0
2015-Aug-01 02:28N 39°20' E 002°59'0 0.0
2015-Aug-01 01:31N 39°20' E 002°59'0 0.0
2015-Aug-01 00:31N 39°20' E 002°59'0 0.0
2015-Jul-31 23:28N 39°20' E 002°59'0 0.0
2015-Jul-31 22:25N 39°20' E 002°59'0 0.0
2015-Jul-31 21:25N 39°20' E 002°59'0 0.0
2015-Jul-31 20:31N 39°20' E 002°59'0 0.0
2015-Jul-31 19:10N 39°20' E 002°59'0 0.0
2015-Jul-31 18:22N 39°20' E 002°59'0 0.0
2015-Jul-31 17:31N 39°20' E 002°59'0 0.0
2015-Jul-29 18:19N 39°20' E 002°59'0 0.0
2015-Jul-29 17:20N 39°20' E 002°59'0 0.0
2015-Jul-29 16:32N 39°20' E 002°59'12 1.3
2015-Jul-29 07:28N 39°22' E 002°44'1010.6
2015-Jul-29 06:33N 39°26' E 002°32'10 1.0
2015-Jul-28 20:05N 39°32' E 002°22'0 0.0
2015-Jul-28 19:33N 39°32' E 002°22'2 0.1
2015-Jul-27 09:33N 39°30' E 002°24'8 7.5
2015-Jul-27 08:30N 39°28' E 002°33'7 5.8
2015-Jul-27 07:18N 39°34' E 002°38'0 0.0
2015-Jul-27 05:33N 39°34' E 002°38'0 0.0
2015-Jul-27 04:22N 39°34' E 002°38'0 0.0
2015-Jul-27 03:33N 39°34' E 002°38'0 0.0
2015-Jul-27 02:33N 39°34' E 002°38'0 0.0
2015-Jul-27 01:22N 39°34' E 002°38'0 0.0
2015-Jul-27 00:33N 39°34' E 002°38'0 0.0
2015-Jul-26 23:23N 39°34' E 002°38'0 0.0
2015-Jul-26 22:25N 39°34' E 002°38'0 0.0
2015-Jul-26 21:27N 39°34' E 002°38'0 0.0
2015-Jul-26 20:33N 39°34' E 002°38'0 0.0
2015-Jul-26 19:32N 39°34' E 002°38'0 0.0
2015-Jul-26 18:32N 39°34' E 002°38'0 0.0
2015-Jul-26 17:32N 39°34' E 002°38'0 0.0
2015-Jul-26 16:33N 39°34' E 002°38'0 0.0
2015-Jul-26 15:33N 39°34' E 002°38'0 0.0
2015-Jul-26 14:31N 39°34' E 002°38'0 0.0
2015-Jul-26 13:33N 39°34' E 002°38'0 0.0
2015-Jul-26 12:33N 39°34' E 002°38'0 0.0
2015-Jul-26 11:33N 39°34' E 002°38'0 0.0
2015-Jul-26 10:33N 39°34' E 002°38'0 0.0
2015-Jul-26 09:32N 39°34' E 002°38'0 0.0
2015-Jul-26 08:33N 39°34' E 002°38'0 0.0
2015-Jul-26 07:33N 39°34' E 002°38'0 0.0
2015-Jul-26 06:32N 39°34' E 002°38'0 0.0
2015-Jul-26 05:31N 39°34' E 002°38'0 0.0
2015-Jul-26 04:33N 39°34' E 002°38'0 0.0
2015-Jul-26 03:33N 39°34' E 002°38'0 0.0
2015-Jul-26 02:23N 39°34' E 002°38'0 0.0
2015-Jul-26 01:33N 39°34' E 002°38'0 0.0
2015-Jul-26 00:33N 39°34' E 002°38'0 0.0
2015-Jul-25 23:30N 39°34' E 002°38'0 0.0
2015-Jul-25 22:33N 39°34' E 002°38'0 0.0
2015-Jul-25 21:30N 39°34' E 002°38'0 0.0
2015-Jul-25 20:33N 39°34' E 002°38'0 0.0
2015-Jul-25 19:33N 39°34' E 002°38'0 0.0
2015-Jul-25 18:27N 39°34' E 002°38'0 0.0
2015-Jul-25 17:33N 39°34' E 002°38'0 0.5
2015-Jul-25 16:33N 39°33' E 002°38'6 2.0
2015-Jul-25 13:32N 39°30' E 002°44'0 0.0
2015-Jul-25 12:32N 39°30' E 002°44'0 0.0
2015-Jul-25 10:32N 39°30' E 002°44'1 0.7
2015-Jul-25 09:33N 39°31' E 002°44'6 6.3
2015-Jul-25 08:33N 39°24' E 002°43'9 9.0
2015-Jul-25 07:33N 39°20' E 002°54'4 4.1
2015-Jul-25 06:33N 39°20' E 002°59'0 0.0
2015-Jul-25 05:33N 39°20' E 002°59'0 0.0
2015-Jul-25 04:33N 39°20' E 002°59'0 0.0
2015-Jul-25 03:33N 39°20' E 002°59'0 0.0
2015-Jul-25 02:33N 39°20' E 002°59'0 0.0
2015-Jul-25 01:34N 39°20' E 002°59'0 0.0
2015-Jul-25 00:34N 39°20' E 002°59'0 0.0
2015-Jul-24 23:33N 39°20' E 002°59'0 0.0
2015-Jul-24 22:33N 39°20' E 002°59'0 0.0
2015-Jul-24 21:33N 39°20' E 002°59'0 0.0
2015-Jul-24 20:33N 39°20' E 002°59'0 0.0
2015-Jul-24 19:33N 39°20' E 002°59'0 0.0
2015-Jul-24 18:33N 39°20' E 002°59'0 0.0
2015-Jul-24 17:33N 39°20' E 002°59'0 0.0
2015-Jul-24 16:33N 39°20' E 002°59'1 1.2
2015-Jul-24 15:33N 39°19' E 002°58'1010.2
2015-Jul-24 14:33N 39°09' E 002°56'0 0.1
2015-Jul-24 13:17N 39°09' E 002°56'  
Track history (hours):
 
Tides and Currents Weather Stations Pressure Air Temp Water Temp Dewpoint Dewpoint Depression Visibility Wind Speed Wind Dir Waves Ship Positions

Kitty

Last reported at 2015-Aug-03 12:31 UTC. Time now 2015-Aug-03 13:09 UTC.
Position N 39°32' E 002°35'.

Length 38 m; draft 2.7 m.

Type: Pleasure craft. MMSI: 319423000.

Date/timePositionNaut miles runAvg speedWind from/ knotsBaromVisibWave heightAir tempDewpointWater temp
2015-Aug-03 12:31N 39°32' E 002°35'0 0.0
2015-Aug-03 11:31N 39°32' E 002°35'0 0.0
2015-Aug-03 10:31N 39°32' E 002°35'0 0.0
2015-Aug-03 09:31N 39°32' E 002°35'0 0.0
2015-Aug-03 08:31N 39°32' E 002°35'0 0.0
2015-Aug-03 07:31N 39°32' E 002°35'0 0.0
2015-Aug-03 06:31N 39°32' E 002°35'0 0.0
2015-Aug-03 05:31N 39°32' E 002°35'0 0.0
2015-Aug-03 04:31N 39°32' E 002°35'0 0.0
2015-Aug-03 03:25N 39°32' E 002°35'0 0.0
2015-Aug-03 02:31N 39°32' E 002°35'0 0.0
2015-Aug-03 01:31N 39°32' E 002°35'0 0.0
2015-Aug-03 00:28N 39°32' E 002°35'0 0.0
2015-Aug-02 23:31N 39°32' E 002°35'0 0.0
2015-Aug-02 22:31N 39°32' E 002°35'0 0.0
2015-Aug-02 21:31N 39°32' E 002°35'0 0.0
2015-Aug-02 20:28N 39°32' E 002°35'0 0.0
2015-Aug-02 19:31N 39°32' E 002°35'0 0.0
2015-Aug-02 18:31N 39°32' E 002°35'0 0.0
2015-Aug-02 17:31N 39°32' E 002°35'0 0.0
2015-Aug-02 16:31N 39°32' E 002°35'0 0.0
2015-Aug-02 15:31N 39°32' E 002°35'0 0.0
2015-Aug-02 14:31N 39°32' E 002°35'0 0.0
2015-Aug-02 13:31N 39°32' E 002°35'0 0.2
2015-Aug-02 12:34N 39°32' E 002°35'3 3.1
2015-Aug-02 11:32N 39°34' E 002°38'0 0.0
2015-Aug-02 10:32N 39°34' E 002°38'0 0.0
2015-Aug-02 09:32N 39°34' E 002°38'0 0.0
2015-Aug-02 08:32N 39°34' E 002°38'0 0.0
2015-Aug-02 07:32N 39°34' E 002°38'0 0.0
2015-Aug-02 06:32N 39°34' E 002°38'0 0.0
2015-Aug-02 05:32N 39°34' E 002°38'0 0.0
2015-Aug-02 04:32N 39°34' E 002°38'0 0.0
2015-Aug-02 03:32N 39°34' E 002°38'0 0.0
2015-Aug-02 02:32N 39°34' E 002°38'0 0.0
2015-Aug-02 01:32N 39°34' E 002°38'0 0.0
2015-Aug-02 00:32N 39°34' E 002°38'0 0.0
2015-Aug-01 23:32N 39°34' E 002°38'0 0.0
2015-Aug-01 22:32N 39°34' E 002°38'0 0.0
2015-Aug-01 21:11N 39°34' E 002°38'0 0.0
2015-Aug-01 20:32N 39°34' E 002°38'0 0.0
2015-Aug-01 19:32N 39°34' E 002°38'0 0.0
2015-Aug-01 18:32N 39°34' E 002°38'0 0.0
2015-Aug-01 17:32N 39°34' E 002°38'0 0.0
2015-Aug-01 16:32N 39°34' E 002°38'0 0.0
2015-Aug-01 15:32N 39°34' E 002°38'0 0.0
2015-Aug-01 14:32N 39°34' E 002°38'0 0.0
2015-Aug-01 13:32N 39°34' E 002°38'0 0.0
2015-Aug-01 12:32N 39°34' E 002°38'0 0.0
2015-Aug-01 11:32N 39°34' E 002°38'0 0.0
2015-Aug-01 10:32N 39°34' E 002°38'0 0.0
2015-Aug-01 09:33N 39°34' E 002°38'4 3.7
2015-Aug-01 08:33N 39°31' E 002°40'10 9.9
2015-Aug-01 07:33N 39°22' E 002°46'10 9.9
2015-Aug-01 06:33N 39°20' E 002°58'1 0.5
2015-Aug-01 05:31N 39°20' E 002°59'0 0.0
2015-Aug-01 04:28N 39°20' E 002°59'0 0.0
2015-Aug-01 03:28N 39°20' E 002°59'0 0.0
2015-Aug-01 02:28N 39°20' E 002°59'0 0.0
2015-Aug-01 01:31N 39°20' E 002°59'0 0.0
2015-Aug-01 00:31N 39°20' E 002°59'0 0.0
2015-Jul-31 23:28N 39°20' E 002°59'0 0.0
2015-Jul-31 22:25N 39°20' E 002°59'0 0.0
2015-Jul-31 21:25N 39°20' E 002°59'0 0.0
2015-Jul-31 20:31N 39°20' E 002°59'0 0.0
2015-Jul-31 19:10N 39°20' E 002°59'0 0.0
2015-Jul-31 18:22N 39°20' E 002°59'0 0.0
2015-Jul-31 17:31N 39°20' E 002°59'0 0.0
2015-Jul-29 18:19N 39°20' E 002°59'0 0.0
2015-Jul-29 17:20N 39°20' E 002°59'0 0.0
2015-Jul-29 16:32N 39°20' E 002°59'12 1.3
2015-Jul-29 07:28N 39°22' E 002°44'1010.6
2015-Jul-29 06:33N 39°26' E 002°32'10 1.0
2015-Jul-28 20:05N 39°32' E 002°22'0 0.0
2015-Jul-28 19:33N 39°32' E 002°22'2 0.1
2015-Jul-27 09:33N 39°30' E 002°24'8 7.5
2015-Jul-27 08:30N 39°28' E 002°33'7 5.8
2015-Jul-27 07:18N 39°34' E 002°38'0 0.0
2015-Jul-27 05:33N 39°34' E 002°38'0 0.0
2015-Jul-27 04:22N 39°34' E 002°38'0 0.0
2015-Jul-27 03:33N 39°34' E 002°38'0 0.0
2015-Jul-27 02:33N 39°34' E 002°38'0 0.0
2015-Jul-27 01:22N 39°34' E 002°38'0 0.0
2015-Jul-27 00:33N 39°34' E 002°38'0 0.0
2015-Jul-26 23:23N 39°34' E 002°38'0 0.0
2015-Jul-26 22:25N 39°34' E 002°38'0 0.0
2015-Jul-26 21:27N 39°34' E 002°38'0 0.0
2015-Jul-26 20:33N 39°34' E 002°38'0 0.0
2015-Jul-26 19:32N 39°34' E 002°38'0 0.0
2015-Jul-26 18:32N 39°34' E 002°38'0 0.0
2015-Jul-26 17:32N 39°34' E 002°38'0 0.0
2015-Jul-26 16:33N 39°34' E 002°38'0 0.0
2015-Jul-26 15:33N 39°34' E 002°38'0 0.0
2015-Jul-26 14:31N 39°34' E 002°38'0 0.0
2015-Jul-26 13:33N 39°34' E 002°38'0 0.0
2015-Jul-26 12:33N 39°34' E 002°38'0 0.0
2015-Jul-26 11:33N 39°34' E 002°38'0 0.0
2015-Jul-26 10:33N 39°34' E 002°38'0 0.0
2015-Jul-26 09:32N 39°34' E 002°38'0 0.0
2015-Jul-26 08:33N 39°34' E 002°38'0 0.0
2015-Jul-26 07:33N 39°34' E 002°38'0 0.0
2015-Jul-26 06:32N 39°34' E 002°38'0 0.0
2015-Jul-26 05:31N 39°34' E 002°38'0 0.0
2015-Jul-26 04:33N 39°34' E 002°38'0 0.0
2015-Jul-26 03:33N 39°34' E 002°38'0 0.0
2015-Jul-26 02:23N 39°34' E 002°38'0 0.0
2015-Jul-26 01:33N 39°34' E 002°38'0 0.0
2015-Jul-26 00:33N 39°34' E 002°38'0 0.0
2015-Jul-25 23:30N 39°34' E 002°38'0 0.0
2015-Jul-25 22:33N 39°34' E 002°38'0 0.0
2015-Jul-25 21:30N 39°34' E 002°38'0 0.0
2015-Jul-25 20:33N 39°34' E 002°38'0 0.0
2015-Jul-25 19:33N 39°34' E 002°38'0 0.0
2015-Jul-25 18:27N 39°34' E 002°38'0 0.0
2015-Jul-25 17:33N 39°34' E 002°38'0 0.5
2015-Jul-25 16:33N 39°33' E 002°38'6 2.0
2015-Jul-25 13:32N 39°30' E 002°44'0 0.0
2015-Jul-25 12:32N 39°30' E 002°44'0 0.0
2015-Jul-25 10:32N 39°30' E 002°44'1 0.7
2015-Jul-25 09:33N 39°31' E 002°44'6 6.3
2015-Jul-25 08:33N 39°24' E 002°43'9 9.0
2015-Jul-25 07:33N 39°20' E 002°54'4 4.1
2015-Jul-25 06:33N 39°20' E 002°59'0 0.0
2015-Jul-25 05:33N 39°20' E 002°59'0 0.0
2015-Jul-25 04:33N 39°20' E 002°59'0 0.0
2015-Jul-25 03:33N 39°20' E 002°59'0 0.0
2015-Jul-25 02:33N 39°20' E 002°59'0 0.0
2015-Jul-25 01:34N 39°20' E 002°59'0 0.0
2015-Jul-25 00:34N 39°20' E 002°59'0 0.0
2015-Jul-24 23:33N 39°20' E 002°59'0 0.0
2015-Jul-24 22:33N 39°20' E 002°59'0 0.0
2015-Jul-24 21:33N 39°20' E 002°59'0 0.0
2015-Jul-24 20:33N 39°20' E 002°59'0 0.0
2015-Jul-24 19:33N 39°20' E 002°59'0 0.0
2015-Jul-24 18:33N 39°20' E 002°59'0 0.0
2015-Jul-24 17:33N 39°20' E 002°59'0 0.0
2015-Jul-24 16:33N 39°20' E 002°59'1 1.2
2015-Jul-24 15:33N 39°19' E 002°58'1010.2
2015-Jul-24 14:33N 39°09' E 002°56'0 0.1
2015-Jul-24 13:17N 39°09' E 002°56'  

Dump ship's entire track history